createdAt,value
2018-06-01T00:01:17.091Z,66.10
2018-06-01T00:03:44.657Z,66.10
2018-06-01T00:06:12.218Z,66.20
2018-06-01T00:08:39.725Z,66.30
2018-06-01T00:11:07.213Z,66.40
2018-06-01T00:13:34.713Z,66.30
2018-06-01T00:16:02.220Z,66.30
2018-06-01T00:18:29.744Z,66.40
2018-06-01T00:20:58.020Z,66.50
2018-06-01T00:23:25.596Z,66.50
2018-06-01T00:25:53.101Z,66.60
2018-06-01T00:28:20.621Z,66.60
2018-06-01T00:30:48.113Z,66.60
2018-06-01T00:33:16.392Z,66.70
2018-06-01T00:35:44.671Z,66.90
2018-06-01T00:38:13.041Z,66.70
2018-06-01T00:40:40.551Z,66.70
2018-06-01T00:43:08.041Z,66.90
2018-06-01T00:45:35.545Z,67.00
2018-06-01T00:48:03.905Z,67.80
2018-06-01T00:50:31.395Z,67.00
2018-06-01T00:52:59.664Z,67.90
2018-06-01T00:55:27.157Z,68.60
2018-06-01T00:57:54.669Z,68.30
2018-06-01T01:00:22.162Z,68.60
2018-06-01T01:02:49.675Z,68.70
2018-06-01T01:05:17.177Z,68.80
2018-06-01T01:07:44.750Z,68.80
2018-06-01T01:10:12.301Z,68.80
2018-06-01T01:12:39.793Z,68.70
2018-06-01T01:15:08.264Z,68.70
2018-06-01T01:17:35.778Z,68.80
2018-06-01T01:20:03.282Z,68.80
2018-06-01T01:22:30.767Z,69.00
2018-06-01T01:24:59.140Z,69.10
2018-06-01T01:27:26.694Z,69.10
2018-06-01T01:29:54.253Z,69.20
2018-06-01T01:32:21.822Z,69.30
2018-06-01T01:34:49.316Z,69.30
2018-06-01T01:37:29.656Z,69.40
2018-06-01T01:39:58.962Z,70.20
2018-06-01T01:42:26.544Z,69.50
2018-06-01T01:44:54.889Z,69.60
2018-06-01T01:47:22.484Z,69.60
2018-06-01T01:49:54.761Z,69.60
2018-06-01T01:52:22.301Z,69.70
2018-06-01T01:54:49.843Z,69.70
2018-06-01T01:57:17.446Z,69.80
2018-06-01T01:59:44.941Z,69.70
2018-06-01T02:02:13.201Z,69.90
2018-06-01T02:04:40.762Z,70.00
2018-06-01T02:07:08.273Z,70.00
2018-06-01T02:09:35.772Z,69.90
2018-06-01T02:12:03.273Z,70.00
2018-06-01T02:14:30.773Z,70.00
2018-06-01T02:16:58.290Z,70.00
2018-06-01T02:19:25.776Z,70.10
2018-06-01T02:21:54.022Z,70.10
2018-06-01T02:24:21.551Z,70.20
2018-06-01T02:26:49.054Z,70.20
2018-06-01T02:29:16.570Z,70.30
2018-06-01T02:31:44.088Z,70.30
2018-06-01T02:34:11.649Z,70.30
2018-06-01T02:36:39.214Z,70.40
2018-06-01T02:39:06.789Z,70.50
2018-06-01T02:41:34.353Z,70.50
2018-06-01T02:44:01.850Z,70.50
2018-06-01T02:46:30.208Z,70.50
2018-06-01T02:48:57.750Z,70.50
2018-06-01T02:51:25.325Z,70.50
2018-06-01T02:53:52.868Z,70.50
2018-06-01T02:56:20.354Z,70.40
2018-06-01T02:58:47.854Z,70.50
2018-06-01T03:01:16.210Z,70.60
2018-06-01T03:03:43.697Z,70.60
2018-06-01T03:06:12.045Z,70.70
2018-06-01T03:08:39.642Z,70.70
2018-06-01T03:11:07.898Z,71.60
2018-06-01T03:13:35.394Z,70.80
2018-06-01T03:16:03.750Z,70.80
2018-06-01T03:18:31.312Z,70.80
2018-06-01T03:20:59.574Z,70.90
2018-06-01T03:23:27.064Z,70.90
2018-06-01T03:25:54.648Z,70.90
2018-06-01T03:28:22.191Z,70.90
2018-06-01T03:30:49.770Z,70.80
2018-06-01T03:33:17.270Z,70.90
2018-06-01T03:35:44.762Z,71.00
2018-06-01T03:38:12.380Z,71.00
2018-06-01T03:40:39.866Z,71.10
2018-06-01T03:43:07.480Z,71.10
2018-06-01T03:45:35.056Z,71.20
2018-06-01T03:48:02.541Z,71.20
2018-06-01T03:50:30.800Z,71.20
2018-06-01T03:52:58.285Z,71.20
2018-06-01T03:55:26.590Z,71.20
2018-06-01T03:57:54.082Z,71.30
2018-06-01T04:00:21.678Z,71.30
2018-06-01T04:02:49.203Z,71.30
2018-06-01T04:05:16.674Z,71.40
2018-06-01T04:07:44.182Z,71.30
2018-06-01T04:10:11.735Z,71.40
2018-06-01T04:12:39.228Z,71.40
2018-06-01T04:15:07.589Z,71.50
2018-06-01T04:17:35.095Z,71.50
2018-06-01T04:20:02.630Z,71.50
2018-06-01T04:22:30.133Z,71.50
2018-06-01T04:24:57.649Z,71.50
2018-06-01T04:27:25.211Z,71.40
2018-06-01T04:29:52.797Z,71.40
2018-06-01T04:32:21.077Z,72.00
2018-06-01T04:34:49.347Z,71.60
2018-06-01T04:37:16.836Z,71.60
2018-06-01T04:39:45.197Z,72.30
2018-06-01T04:42:12.687Z,71.60
2018-06-01T04:44:40.225Z,71.60
2018-06-01T04:47:07.829Z,71.60
2018-06-01T04:49:35.354Z,71.60
2018-06-01T04:52:02.917Z,71.50
2018-06-01T04:54:30.430Z,72.30
2018-06-01T04:56:58.040Z,71.60
2018-06-01T04:59:25.633Z,71.50
2018-06-01T05:01:53.885Z,71.50
2018-06-01T05:04:21.383Z,71.60
2018-06-01T05:06:49.647Z,71.70
2018-06-01T05:09:17.921Z,71.70
2018-06-01T05:11:45.407Z,71.80
2018-06-01T05:14:13.678Z,71.90
2018-06-01T05:16:41.247Z,72.00
2018-06-01T05:19:08.739Z,72.10
2018-06-01T05:21:37.033Z,72.10
2018-06-01T05:24:04.545Z,71.90
2018-06-01T05:26:32.113Z,72.20
2018-06-01T05:28:59.599Z,72.20
2018-06-01T05:31:27.861Z,72.20
2018-06-01T05:33:55.421Z,72.20
2018-06-01T05:36:22.919Z,72.20
2018-06-01T05:38:51.283Z,72.30
2018-06-01T05:41:18.834Z,72.30
2018-06-01T05:43:46.361Z,72.30
2018-06-01T05:46:13.871Z,72.40
2018-06-01T05:48:41.363Z,72.50
2018-06-01T05:51:09.618Z,72.30
2018-06-01T05:53:37.133Z,72.90
2018-06-01T05:56:04.637Z,72.30
2018-06-01T05:58:32.152Z,72.20
2018-06-01T06:00:59.687Z,72.20
2018-06-01T06:03:27.965Z,72.20
2018-06-01T06:05:55.476Z,72.20
2018-06-01T06:08:22.961Z,72.20
2018-06-01T06:10:50.487Z,73.20
2018-06-01T06:13:17.989Z,72.20
2018-06-01T06:15:45.497Z,72.20
2018-06-01T06:18:13.762Z,72.30
2018-06-01T06:20:41.267Z,72.30
2018-06-01T06:23:08.853Z,72.20
2018-06-01T06:25:36.499Z,72.30
2018-06-01T06:28:04.843Z,72.30
2018-06-01T06:30:32.378Z,72.30
2018-06-01T06:32:59.878Z,72.30
2018-06-01T06:35:28.249Z,72.30
2018-06-01T06:37:55.748Z,72.30
2018-06-01T06:40:24.106Z,72.30
2018-06-01T06:42:51.599Z,72.30
2018-06-01T06:45:19.953Z,72.70
2018-06-01T06:47:48.233Z,72.60
2018-06-01T06:50:15.801Z,72.70
2018-06-01T06:52:43.285Z,72.50
2018-06-01T06:55:11.686Z,72.60
2018-06-01T06:57:39.927Z,72.50
2018-06-01T07:00:07.489Z,72.60
2018-06-01T07:02:35.057Z,72.50
2018-06-01T07:05:02.618Z,72.50
2018-06-01T07:07:30.128Z,72.60
2018-06-01T07:09:58.393Z,73.00
2018-06-01T07:12:26.686Z,73.20
2018-06-01T07:14:55.037Z,73.40
2018-06-01T07:17:22.604Z,73.40
2018-06-01T07:19:50.121Z,73.60
2018-06-01T07:22:17.625Z,73.70
2018-06-01T07:24:45.165Z,73.90
2018-06-01T07:27:12.662Z,74.10
2018-06-01T07:29:40.183Z,75.00
2018-06-01T07:32:07.699Z,76.10
2018-06-01T07:34:35.209Z,76.00
2018-06-01T07:37:02.837Z,76.70
2018-06-01T07:39:30.349Z,75.80
2018-06-01T07:41:57.860Z,75.70
2018-06-01T07:44:25.368Z,75.50
2018-06-01T07:46:52.870Z,75.40
2018-06-01T07:49:20.402Z,75.20
2018-06-01T07:51:47.926Z,75.80
2018-06-01T07:54:15.437Z,74.90
2018-06-01T07:56:42.952Z,74.80
2018-06-01T07:59:10.521Z,74.80
2018-06-01T08:01:38.039Z,74.80
2018-06-01T08:04:05.631Z,74.60
2018-06-01T08:06:33.148Z,74.60
2018-06-01T08:09:00.932Z,74.50
2018-06-01T08:11:28.452Z,74.30
2018-06-01T08:13:56.017Z,74.10
2018-06-01T08:16:24.292Z,73.70
2018-06-01T08:18:52.559Z,73.50
2018-06-01T08:21:20.114Z,73.50
2018-06-01T08:23:47.716Z,73.30
2018-06-01T08:26:15.228Z,73.20
2018-06-01T08:28:42.741Z,73.40
2018-06-01T08:31:10.258Z,74.00
2018-06-01T08:33:37.896Z,73.20
2018-06-01T08:36:06.171Z,72.90
2018-06-01T08:38:34.537Z,72.80
2018-06-01T08:41:02.110Z,72.80
2018-06-01T08:43:29.664Z,72.60
2018-06-01T08:45:57.168Z,72.40
2018-06-01T08:48:24.676Z,72.10
2018-06-01T08:50:52.186Z,72.00
2018-06-01T08:53:19.700Z,71.70
2018-06-01T08:55:47.210Z,71.30
2018-06-01T08:58:15.468Z,70.20
2018-06-01T09:00:43.047Z,70.20
2018-06-01T09:03:10.571Z,70.00
2018-06-01T09:05:38.062Z,69.70
2018-06-01T09:08:05.598Z,69.50
2018-06-01T09:10:33.093Z,69.20
2018-06-01T09:13:00.593Z,69.10
2018-06-01T09:15:28.948Z,68.80
2018-06-01T09:17:56.425Z,68.80
2018-06-01T09:20:24.841Z,68.90
2018-06-01T09:22:52.345Z,68.90
2018-06-01T09:25:19.924Z,68.90
2018-06-01T09:27:47.532Z,68.80
2018-06-01T09:30:15.028Z,68.80
2018-06-01T09:32:42.628Z,68.80
2018-06-01T09:35:10.193Z,68.80
2018-06-01T09:37:37.706Z,68.80
2018-06-01T09:40:05.227Z,68.80
2018-06-01T09:42:32.710Z,68.60
2018-06-01T09:45:01.064Z,68.60
2018-06-01T09:47:28.570Z,68.50
2018-06-01T09:49:56.089Z,68.70
2018-06-01T09:52:23.633Z,68.80
2018-06-01T09:54:51.118Z,69.00
2018-06-01T09:57:18.607Z,69.20
2018-06-01T09:59:46.881Z,68.90
2018-06-01T10:02:14.382Z,69.00
2018-06-01T10:04:41.878Z,68.80
2018-06-01T10:07:09.369Z,68.80
2018-06-01T10:09:36.890Z,68.50
2018-06-01T10:12:04.391Z,68.30
2018-06-01T10:14:31.886Z,68.10
2018-06-01T10:17:00.155Z,67.80
2018-06-01T10:19:28.516Z,68.00
2018-06-01T10:21:57.535Z,68.10
2018-06-01T10:24:25.808Z,68.30
2018-06-01T10:26:53.363Z,68.30
2018-06-01T10:29:20.885Z,68.60
2018-06-01T10:31:48.385Z,68.70
2018-06-01T10:34:15.981Z,68.70
2018-06-01T10:36:44.237Z,68.50
2018-06-01T10:39:11.737Z,68.50
2018-06-01T10:41:40.088Z,68.50
2018-06-01T10:44:07.607Z,68.50
2018-06-01T10:46:35.125Z,68.30
2018-06-01T10:49:02.682Z,68.20
2018-06-01T10:51:30.183Z,67.50
2018-06-01T10:53:58.539Z,66.70
2018-06-01T10:56:26.113Z,66.70
2018-06-01T10:58:53.666Z,65.90
2018-06-01T11:01:21.158Z,66.20
2018-06-01T11:03:49.510Z,66.50
2018-06-01T11:06:17.029Z,66.50
2018-06-01T11:08:44.521Z,66.40
2018-06-01T11:11:12.114Z,66.60
2018-06-01T11:13:39.600Z,66.70
2018-06-01T11:16:07.950Z,66.60
2018-06-01T11:18:35.437Z,66.60
2018-06-01T11:21:03.698Z,66.00
2018-06-01T11:23:31.216Z,66.10
2018-06-01T11:25:58.738Z,66.30
2018-06-01T11:28:26.308Z,66.20
2018-06-01T11:30:53.860Z,66.10
2018-06-01T11:33:21.432Z,65.80
2018-06-01T11:35:48.998Z,65.50
2018-06-01T11:38:16.509Z,65.10
2018-06-01T11:40:44.000Z,64.80
2018-06-01T11:43:11.598Z,64.50
2018-06-01T11:45:39.098Z,64.30
2018-06-01T11:48:06.618Z,64.40
2018-06-01T11:50:34.118Z,64.30
2018-06-01T11:53:01.656Z,64.30
2018-06-01T11:55:30.657Z,64.30
2018-06-01T11:57:59.135Z,64.30
2018-06-01T12:00:26.716Z,64.60
2018-06-01T12:02:54.244Z,65.00
2018-06-01T12:05:21.832Z,65.30
2018-06-01T12:07:49.394Z,65.80
2018-06-01T12:10:16.899Z,66.40
2018-06-01T12:12:45.174Z,67.20
2018-06-01T12:15:13.442Z,67.20
2018-06-01T12:17:40.994Z,67.20
2018-06-01T12:20:08.467Z,67.60
2018-06-01T12:22:35.976Z,68.20
2018-06-01T12:25:03.590Z,68.50
2018-06-01T12:27:31.158Z,69.00
2018-06-01T12:29:59.439Z,69.70
2018-06-01T12:32:26.939Z,69.70
2018-06-01T12:34:54.491Z,70.00
2018-06-01T12:37:22.851Z,70.30
2018-06-01T12:39:50.421Z,70.30
2018-06-01T12:42:17.912Z,70.90
2018-06-01T12:44:45.445Z,71.40
2018-06-01T12:47:12.974Z,71.60
2018-06-01T12:49:40.501Z,71.90
2018-06-01T12:52:08.773Z,71.50
2018-06-01T12:54:37.035Z,71.70
2018-06-01T12:57:04.525Z,71.70
2018-06-01T12:59:32.884Z,71.90
2018-06-01T13:02:00.408Z,71.90
2018-06-01T13:04:27.910Z,71.90
2018-06-01T13:06:55.455Z,72.50
2018-06-01T13:09:23.059Z,72.90
2018-06-01T13:11:50.563Z,73.00
2018-06-01T13:14:18.078Z,72.70
2018-06-01T13:16:45.647Z,72.40
2018-06-01T13:19:13.140Z,72.10
2018-06-01T13:21:41.409Z,71.10
2018-06-01T13:24:09.689Z,70.30
2018-06-01T13:26:37.251Z,70.30
2018-06-01T13:29:04.817Z,70.10
2018-06-01T13:31:33.079Z,69.60
2018-06-01T13:34:00.657Z,69.60
2018-06-01T13:36:28.181Z,69.70
2018-06-01T13:38:55.788Z,70.10
2018-06-01T13:41:23.294Z,70.10
2018-06-01T13:43:50.793Z,69.30
2018-06-01T13:46:18.277Z,69.00
2018-06-01T13:48:45.833Z,69.60
2018-06-01T13:51:13.416Z,68.30
2018-06-01T13:53:40.911Z,68.70
2018-06-01T13:56:08.407Z,68.40
2018-06-01T13:58:35.915Z,68.60
2018-06-01T14:01:03.478Z,68.90
2018-06-01T14:03:30.994Z,69.20
2018-06-01T14:05:58.607Z,69.10
2018-06-01T14:08:26.160Z,68.80
2018-06-01T14:10:53.663Z,68.50
2018-06-01T14:13:21.925Z,67.30
2018-06-01T14:15:49.483Z,67.30
2018-06-01T14:18:17.765Z,67.50
2018-06-01T14:20:45.342Z,67.50
2018-06-01T14:23:12.833Z,67.70
2018-06-01T14:25:40.335Z,67.40
2018-06-01T14:28:07.927Z,67.20
2018-06-01T14:30:35.431Z,67.20
2018-06-01T14:33:02.927Z,67.20
2018-06-01T14:35:30.411Z,67.30
2018-06-01T14:37:57.974Z,67.00
2018-06-01T14:40:25.593Z,67.00
2018-06-01T14:42:53.123Z,66.50
2018-06-01T14:45:20.603Z,66.40
2018-06-01T14:47:48.877Z,65.80
2018-06-01T14:50:17.241Z,65.50
2018-06-01T14:52:44.761Z,65.50
2018-06-01T14:55:12.251Z,65.20
2018-06-01T14:57:39.835Z,64.80
2018-06-01T15:00:07.398Z,64.60
2018-06-01T15:02:34.899Z,64.70
2018-06-01T15:05:03.169Z,64.30
2018-06-01T15:07:31.447Z,64.10
2018-06-01T15:09:59.013Z,64.10
2018-06-01T15:12:26.511Z,63.80
2018-06-01T15:14:54.036Z,63.90
2018-06-01T15:17:22.315Z,63.30
2018-06-01T15:19:49.811Z,63.30
2018-06-01T15:22:17.317Z,63.60
2018-06-01T15:24:44.904Z,63.30
2018-06-01T15:27:12.483Z,63.10
2018-06-01T15:29:40.763Z,63.40
2018-06-01T15:32:08.322Z,63.40
2018-06-01T15:34:35.892Z,63.50
2018-06-01T15:37:03.387Z,63.60
2018-06-01T15:39:30.877Z,63.70
2018-06-01T15:41:58.426Z,63.60
2018-06-01T15:44:25.942Z,63.60
2018-06-01T15:46:53.466Z,63.40
2018-06-01T15:49:21.016Z,63.40
2018-06-01T15:51:48.509Z,63.40
2018-06-01T15:54:16.031Z,63.50
2018-06-01T15:56:44.295Z,63.50
2018-06-01T15:59:11.836Z,63.50
2018-06-01T16:01:39.418Z,63.50
2018-06-01T16:04:06.913Z,63.10
2018-06-01T16:06:35.191Z,63.30
2018-06-01T16:09:03.453Z,63.30
2018-06-01T16:11:32.541Z,63.10
2018-06-01T16:14:00.121Z,63.00
2018-06-01T16:16:27.613Z,63.70
2018-06-01T16:18:55.258Z,62.70
2018-06-01T16:21:22.761Z,62.80
2018-06-01T16:23:50.245Z,62.80
2018-06-01T16:26:17.747Z,62.90
2018-06-01T16:28:45.249Z,63.80
2018-06-01T16:31:12.761Z,63.20
2018-06-01T16:33:40.253Z,63.00
2018-06-01T16:36:08.506Z,63.10
2018-06-01T16:38:36.021Z,63.10
2018-06-01T16:41:03.531Z,63.00
2018-06-01T16:43:31.054Z,62.80
2018-06-01T16:45:58.564Z,63.10
2018-06-01T16:48:26.857Z,62.90
2018-06-01T16:50:54.485Z,62.90
2018-06-01T16:53:21.984Z,62.50
2018-06-01T16:55:50.255Z,62.40
2018-06-01T16:58:17.825Z,62.50
2018-06-01T17:00:45.321Z,62.50
2018-06-01T17:03:13.680Z,63.20
2018-06-01T17:05:41.203Z,63.20
2018-06-01T17:08:08.744Z,63.80
2018-06-01T17:10:37.090Z,65.50
2018-06-01T17:13:04.587Z,65.50
2018-06-01T17:15:32.949Z,66.00
2018-06-01T17:18:00.511Z,66.00
2018-06-01T17:20:28.030Z,66.50
2018-06-01T17:22:55.513Z,67.20
2018-06-01T17:25:23.101Z,67.40
2018-06-01T17:27:50.614Z,67.20
2018-06-01T17:30:18.115Z,67.50
2018-06-01T17:32:45.707Z,67.90
2018-06-01T17:35:13.209Z,67.90
2018-06-01T17:37:40.733Z,68.80
2018-06-01T17:40:08.305Z,68.00
2018-06-01T17:42:35.827Z,67.90
2018-06-01T17:45:03.375Z,68.20
2018-06-01T17:47:30.867Z,68.00
2018-06-01T17:49:58.460Z,68.30
2018-06-01T17:52:26.028Z,69.00
2018-06-01T17:54:53.602Z,69.40
2018-06-01T17:57:21.141Z,69.70
2018-06-01T17:59:48.634Z,69.70
2018-06-01T18:02:16.896Z,69.70
2018-06-01T18:04:44.388Z,69.70
2018-06-01T18:07:12.658Z,70.20
2018-06-01T18:09:40.172Z,70.20
2018-06-01T18:12:07.772Z,70.30
2018-06-01T18:14:36.783Z,70.10
2018-06-01T18:17:04.290Z,70.10
2018-06-01T18:19:31.819Z,70.30
2018-06-01T18:21:59.368Z,69.90
2018-06-01T18:24:26.945Z,69.60
2018-06-01T18:26:54.522Z,69.60
2018-06-01T18:29:22.798Z,69.20
2018-06-01T18:31:51.082Z,68.90
2018-06-01T18:34:19.371Z,68.60
2018-06-01T18:36:47.749Z,68.50
2018-06-01T18:39:16.123Z,68.70
2018-06-01T18:41:44.417Z,68.90
2018-06-01T18:44:12.782Z,69.00
2018-06-01T18:46:40.320Z,69.00
2018-06-01T18:49:07.846Z,69.10
2018-06-01T18:51:36.107Z,69.30
2018-06-01T18:54:03.604Z,69.30
2018-06-01T18:56:31.106Z,69.40
2018-06-01T18:58:58.626Z,69.60
2018-06-01T19:01:26.144Z,69.90
2018-06-01T19:03:53.636Z,70.00
2018-06-01T19:06:22.020Z,71.00
2018-06-01T19:08:50.294Z,70.50
2018-06-01T19:11:18.568Z,70.60
2018-06-01T19:13:46.093Z,70.60
2018-06-01T19:16:13.596Z,70.80
2018-06-01T19:18:41.176Z,71.10
2018-06-01T19:21:08.686Z,70.80
2018-06-01T19:23:36.207Z,70.70
2018-06-01T19:26:04.483Z,71.00
2018-06-01T19:28:32.046Z,71.00
2018-06-01T19:30:59.617Z,71.00
2018-06-01T19:33:27.183Z,70.90
2018-06-01T19:35:54.750Z,70.80
2018-06-01T19:38:23.027Z,70.80
2018-06-01T19:40:50.544Z,70.70
2018-06-01T19:43:18.058Z,70.60
2018-06-01T19:45:45.568Z,70.60
2018-06-01T19:48:13.090Z,70.50
2018-06-01T19:50:40.603Z,70.00
2018-06-01T19:53:08.098Z,70.10
2018-06-01T19:55:35.690Z,70.20
2018-06-01T19:58:03.968Z,70.50
2018-06-01T20:00:32.266Z,71.30
2018-06-01T20:03:00.655Z,70.00
2018-06-01T20:05:28.338Z,70.00
2018-06-01T20:07:55.890Z,69.00
2018-06-01T20:10:24.186Z,69.50
2018-06-01T20:12:51.729Z,69.40
2018-06-01T20:15:20.032Z,70.40
2018-06-01T20:17:47.596Z,70.40
2018-06-01T20:20:15.112Z,70.60
2018-06-01T20:22:42.633Z,70.40
2018-06-01T20:25:10.155Z,70.60
2018-06-01T20:27:38.430Z,70.80
2018-06-01T20:30:05.928Z,70.80
2018-06-01T20:32:33.445Z,70.50
2018-06-01T20:35:00.956Z,70.50
2018-06-01T20:37:29.326Z,70.50
2018-06-01T20:39:57.603Z,70.70
2018-06-01T20:42:25.177Z,70.60
2018-06-01T20:44:53.488Z,70.40
2018-06-01T20:47:21.005Z,70.40
2018-06-01T20:49:49.379Z,70.10
2018-06-01T20:52:16.912Z,69.50
2018-06-01T20:54:44.449Z,69.60
2018-06-01T20:57:12.811Z,70.30
2018-06-01T20:59:40.316Z,70.30
2018-06-01T21:02:07.847Z,70.30
2018-06-01T21:04:35.341Z,70.30
2018-06-01T21:07:02.870Z,70.30
2018-06-01T21:09:30.381Z,70.30
2018-06-01T21:11:57.916Z,70.30
2018-06-01T21:14:26.232Z,70.20
2018-06-01T21:16:53.727Z,70.20
2018-06-01T21:19:21.241Z,70.10
2018-06-01T21:21:48.746Z,70.10
2018-06-01T21:24:16.246Z,70.10
2018-06-01T21:26:43.798Z,70.10
2018-06-01T21:29:11.304Z,70.10
2018-06-01T21:31:38.803Z,70.00
2018-06-01T21:34:06.311Z,70.10
2018-06-01T21:36:34.671Z,70.00
2018-06-01T21:39:02.247Z,70.10
2018-06-01T21:41:29.719Z,70.00
2018-06-01T21:43:57.990Z,69.80
2018-06-01T21:46:25.547Z,69.80
2018-06-01T21:48:53.042Z,69.80
2018-06-01T21:51:21.307Z,69.80
2018-06-01T21:53:49.620Z,70.00
2018-06-01T21:56:17.123Z,69.90
2018-06-01T21:58:44.712Z,70.60
2018-06-01T22:01:12.203Z,69.80
2018-06-01T22:03:40.553Z,69.70
2018-06-01T22:06:08.064Z,69.70
2018-06-01T22:08:36.399Z,69.60
2018-06-01T22:11:03.986Z,69.40
2018-06-01T22:13:31.554Z,69.80
2018-06-01T22:15:59.123Z,70.60
2018-06-01T22:18:27.499Z,71.30
2018-06-01T22:20:55.761Z,71.60
2018-06-01T22:23:23.266Z,71.60
2018-06-01T22:25:51.615Z,71.60
2018-06-01T22:28:19.934Z,71.70
2018-06-01T22:30:47.435Z,71.70
2018-06-01T22:33:15.061Z,71.70
2018-06-01T22:35:43.420Z,71.90
2018-06-01T22:38:10.985Z,71.90
2018-06-01T22:40:38.506Z,71.90
2018-06-01T22:43:06.047Z,72.10
2018-06-01T22:45:34.402Z,72.30
2018-06-01T22:48:01.898Z,72.30
2018-06-01T22:50:29.391Z,72.30
2018-06-01T22:52:56.923Z,72.30
2018-06-01T22:55:25.167Z,72.80
2018-06-01T22:57:52.832Z,72.40
2018-06-01T23:00:30.370Z,72.40
2018-06-01T23:02:57.873Z,72.50
2018-06-01T23:05:25.483Z,72.50
2018-06-01T23:07:53.741Z,72.60
2018-06-01T23:10:21.252Z,72.60
2018-06-01T23:12:48.782Z,72.70
2018-06-01T23:15:16.349Z,72.70
2018-06-01T23:17:44.634Z,72.70
2018-06-01T23:20:12.216Z,72.80
2018-06-01T23:22:40.463Z,72.80
2018-06-01T23:25:07.973Z,72.80
2018-06-01T23:27:35.522Z,72.80
2018-06-01T23:30:03.794Z,72.80
2018-06-01T23:32:31.299Z,72.80
2018-06-01T23:34:58.788Z,72.80
2018-06-01T23:37:26.375Z,72.90
2018-06-01T23:39:53.881Z,72.90
2018-06-01T23:42:22.165Z,72.90
2018-06-01T23:44:49.709Z,72.90
2018-06-01T23:47:17.263Z,72.90
2018-06-01T23:49:44.763Z,72.90
2018-06-01T23:52:12.288Z,73.00
2018-06-01T23:54:39.815Z,73.00
2018-06-01T23:57:07.313Z,73.00
2018-06-01T23:59:34.803Z,72.70
